Impacts TAF Board INFO
FOR SITUATIONAL AWARENESS. NOT TO BE USED FOR FLIGHT PLANNING PURPOSES.
IDs:

KSFO - San Francisco Intl, CA, US

Issued at 2320 UTC 23 Jan 2018
Updated at 0201 UTC 24 Jan 2018
Potential Impact None Slight Moderate High
Time<<25/02Z 25/03Z 25/04Z 25/05Z 25/06Z 25/07Z 25/08Z 25/09Z 25/10Z 25/11Z 25/12Z 25/13Z 25/14Z
Type PRVL PRVL PRVL PRVL
VIS 5 5 5 5
CIG 15 15 15 15
Cover OVC OVC OVC OVC
FltCat MVFR MVFR MVFR MVFR
WX -RA BR -RA BR -RA BR -RA BR
WDir 240 240 240 240
WSpd 10 10 10 10
WGst -- -- -- --

Raw TAF
KSFO 232320Z 2400/2506 35005KT P6SM FEW020 SCT200
  FM240400 18004KT P6SM SCT200
  FM241100 17005KT P6SM BKN050
  FM241500 17010KT P6SM BKN025
  FM242000 20017G22KT 6SM -RA OVC030
  FM250000 24010KT 5SM -RA BR BKN015 OVC030


METAR Board
Radar Display
Forecast Discussion

FOR SITUATIONAL AWARENESS. NOT TO BE USED FOR FLIGHT PLANNING PURPOSES.